Time;durP1;ratioP1;P1;durP2;ratioP2;P2;SDS_P1;SDS_P2;PMS_P1;PMS_P2;Temp;Humidity;BMP_temperature;BMP_pressure;BME280_temperature;BME280_humidity;BME280_pressure;Samples;Min_cycle;Max_cycle;Signal;HPM_P1;HPM_P2
2023/04/27 00:01:05;;;;;;;8.77;5.03;;;;;;;;;;5231309;28;20022;-75
2023/04/27 00:03:36;;;;;;;;;;;;;;;;;;5231005;28;20124;-75
2023/04/27 00:06:08;;;;;;;5.78;3.83;;;;;;;;;;5230868;28;19995;-75
2023/04/27 00:08:39;;;;;;;7.93;4.87;;;;;;;;;;5231123;28;20025;-75
2023/04/27 00:11:11;;;;;;;13.57;4.43;;;;;;;;;;5229503;28;20479;-75
2023/04/27 00:13:42;;;;;;;7.93;4.67;;;;;;;;;;5229830;28;20025;-74
2023/04/27 00:16:13;;;;;;;12.40;4.73;;;;;;;;;;5230540;28;20098;-75
2023/04/27 00:18:44;;;;;;;7.57;4.50;;;;;;;;;;5230952;28;20018;-75
2023/04/27 00:21:16;;;;;;;9.83;4.57;;;;;;;;;;5228698;28;20013;-74
2023/04/27 00:23:47;;;;;;;11.03;5.97;;;;;;;;;;5231384;28;20036;-75
2023/04/27 00:26:19;;;;;;;6.77;4.20;;;;;;;;;;5229514;28;20077;-75
2023/04/27 00:28:50;;;;;;;9.43;4.50;;;;;;;;;;5230819;28;20376;-75
2023/04/27 00:31:21;;;;;;;9.47;4.53;;;;;;;;;;5230448;28;20048;-75
2023/04/27 00:33:52;;;;;;;7.63;4.63;;;;;;;;;;5229103;28;20522;-76
2023/04/27 00:36:24;;;;;;;8.47;4.50;;;;;;;;;;5230275;28;20059;-76
2023/04/27 00:38:55;;;;;;;10.53;4.43;;;;;;;;;;5230618;28;20013;-76
2023/04/27 00:41:26;;;;;;;13.60;5.33;;;;;;;;;;5229593;28;20013;-76
2023/04/27 00:43:57;;;;;;;10.00;4.80;;;;;;;;;;5230733;28;20028;-76
2023/04/27 00:46:28;;;;;;;7.80;4.53;;;;;;;;;;5229070;28;20828;-75
2023/04/27 00:49:00;;;;;;;5.30;4.07;;;;;;;;;;5230175;28;20048;-75
2023/04/27 00:51:31;;;;;;;8.17;4.73;;;;;;;;;;5230431;28;20029;-75
2023/04/27 00:54:03;;;;;;;9.87;4.57;;;;;;;;;;5230751;28;20025;-75
2023/04/27 00:56:35;;;;;;;8.13;4.10;;;;;;;;;;5227517;28;20022;-75
2023/04/27 00:59:06;;;;;;;7.23;4.67;;;;;;;;;;5230415;28;20025;-75
2023/04/27 01:01:37;;;;;;;7.87;4.40;;;;;;;;;;5229459;28;20488;-76
2023/04/27 01:04:08;;;;;;;7.67;5.10;;;;;;;;;;5230475;28;20062;-76
2023/04/27 01:06:39;;;;;;;12.87;5.27;;;;;;;;;;5229510;28;20037;-76
2023/04/27 01:09:11;;;;;;;11.93;4.53;;;;;;;;;;5228698;28;20081;-76
2023/04/27 01:11:42;;;;;;;7.73;5.07;;;;;;;;;;5228281;28;20029;-76
2023/04/27 01:14:13;;;;;;;12.40;5.90;;;;;;;;;;5229834;28;20021;-76
2023/04/27 01:16:45;;;;;;;7.67;4.50;;;;;;;;;;5229760;28;20030;-76
2023/04/27 01:19:16;;;;;;;11.70;4.67;;;;;;;;;;5229771;28;20017;-76
2023/04/27 01:21:47;;;;;;;8.30;4.30;;;;;;;;;;5229960;28;20453;-76
2023/04/27 01:24:18;;;;;;;13.23;4.30;;;;;;;;;;5229275;28;20024;-76
2023/04/27 01:26:52;;;;;;;8.17;5.00;;;;;;;;;;5229445;28;20051;-74
2023/04/27 01:29:24;;;;;;;9.32;4.97;;;;;;;;;;5229072;28;20034;-75
2023/04/27 01:31:55;;;;;;;5.67;4.03;;;;;;;;;;5229416;28;20389;-75
2023/04/27 01:34:26;;;;;;;14.33;4.67;;;;;;;;;;5229083;28;20036;-74
2023/04/27 01:36:57;;;;;;;8.63;4.57;;;;;;;;;;5228339;28;20408;-75
2023/04/27 01:39:28;;;;;;;6.87;4.67;;;;;;;;;;5228064;28;20026;-75
2023/04/27 01:42:02;;;;;;;10.90;4.77;;;;;;;;;;5228913;28;20025;-75
2023/04/27 01:44:33;;;;;;;9.07;4.63;;;;;;;;;;5229458;28;20052;-75
2023/04/27 01:47:05;;;;;;;8.70;4.53;;;;;;;;;;5231491;28;20025;-75
2023/04/27 01:49:36;;;;;;;6.40;4.27;;;;;;;;;;5232824;28;20640;-76
2023/04/27 01:52:07;;;;;;;9.57;5.07;;;;;;;;;;5232862;28;20030;-76
2023/04/27 01:54:38;;;;;;;9.83;5.97;;;;;;;;;;5230958;28;20703;-74
2023/04/27 01:57:09;;;;;;;7.57;4.90;;;;;;;;;;5233095;28;20129;-74
2023/04/27 01:59:40;;;;;;;5.83;4.43;;;;;;;;;;5232265;28;20017;-74
2023/04/27 02:02:12;;;;;;;10.23;4.50;;;;;;;;;;5232580;28;20465;-75
2023/04/27 02:04:43;;;;;;;8.30;4.93;;;;;;;;;;5232616;28;20024;-75
2023/04/27 02:07:15;;;;;;;10.40;5.70;;;;;;;;;;5233216;28;20164;-75
2023/04/27 02:09:46;;;;;;;13.47;5.17;;;;;;;;;;5231974;28;20033;-75
2023/04/27 02:12:17;;;;;;;8.40;4.70;;;;;;;;;;5231973;28;20032;-75
2023/04/27 02:14:48;;;;;;;8.67;5.10;;;;;;;;;;5232251;28;20022;-75
2023/04/27 02:17:19;;;;;;;7.87;5.20;;;;;;;;;;5232466;28;20035;-75
2023/04/27 02:19:51;;;;;;;10.37;5.37;;;;;;;;;;5232465;28;20624;-75
2023/04/27 02:22:22;;;;;;;9.53;5.00;;;;;;;;;;5232510;28;20527;-76
2023/04/27 02:24:53;;;;;;;8.03;4.60;;;;;;;;;;5232126;28;20021;-76
2023/04/27 02:27:24;;;;;;;15.10;5.00;;;;;;;;;;5231992;28;20022;-75
2023/04/27 02:29:56;;;;;;;10.37;5.10;;;;;;;;;;5232565;28;20053;-76
2023/04/27 02:32:27;;;;;;;9.17;5.73;;;;;;;;;;5231953;28;20052;-76
2023/04/27 02:34:58;;;;;;;7.27;5.07;;;;;;;;;;5232586;28;20025;-77
2023/04/27 02:37:29;;;;;;;9.37;5.30;;;;;;;;;;5230452;28;20097;-77
2023/04/27 02:40:01;;;;;;;12.27;5.87;;;;;;;;;;5231560;28;20415;-76
2023/04/27 02:42:32;;;;;;;10.70;5.57;;;;;;;;;;5231725;28;20025;-75
2023/04/27 02:45:04;;;;;;;9.53;4.90;;;;;;;;;;5230666;28;20018;-75
2023/04/27 02:47:35;;;;;;;8.20;5.00;;;;;;;;;;5230869;28;20044;-76
2023/04/27 02:50:07;;;;;;;7.50;4.97;;;;;;;;;;5231627;28;20078;-75
2023/04/27 02:52:38;;;;;;;13.20;6.20;;;;;;;;;;5232155;28;20025;-75
2023/04/27 02:55:10;;;;;;;10.17;5.67;;;;;;;;;;5231244;28;20060;-75
2023/04/27 02:57:41;;;;;;;9.47;5.67;;;;;;;;;;5230922;28;20026;-75
2023/04/27 03:00:13;;;;;;;8.57;5.40;;;;;;;;;;5231382;28;20045;-74
2023/04/27 03:02:44;;;;;;;11.70;5.83;;;;;;;;;;5232355;28;20097;-74
2023/04/27 03:05:16;;;;;;;10.53;6.03;;;;;;;;;;5231513;28;20018;-74
2023/04/27 03:07:47;;;;;;;13.97;6.47;;;;;;;;;;5232293;28;20017;-74
2023/04/27 03:10:18;;;;;;;9.83;5.57;;;;;;;;;;5229531;28;20045;-74
2023/04/27 03:12:49;;;;;;;10.37;5.80;;;;;;;;;;5231211;28;20116;-75
2023/04/27 03:15:21;;;;;;;12.97;6.23;;;;;;;;;;5230407;28;20017;-75
2023/04/27 03:17:52;;;;;;;11.00;5.63;;;;;;;;;;5231566;28;20037;-75
2023/04/27 03:20:23;;;;;;;5.90;5.20;;;;;;;;;;5231778;28;20356;-75
2023/04/27 03:22:55;;;;;;;11.53;6.33;;;;;;;;;;5230718;28;20022;-77
2023/04/27 03:25:26;;;;;;;16.27;7.43;;;;;;;;;;5230897;28;20071;-77
2023/04/27 03:27:57;;;;;;;9.47;6.03;;;;;;;;;;5229704;28;20104;-76
2023/04/27 03:30:28;;;;;;;9.20;5.67;;;;;;;;;;5231328;28;20142;-76
2023/04/27 03:33:00;;;;;;;11.97;5.87;;;;;;;;;;5232055;28;20052;-76
2023/04/27 03:35:31;;;;;;;9.70;6.50;;;;;;;;;;5230024;28;20025;-76
2023/04/27 03:38:02;;;;;;;11.83;7.37;;;;;;;;;;5231722;28;20030;-75
2023/04/27 03:40:33;;;;;;;13.07;7.70;;;;;;;;;;5229803;28;20201;-77
2023/04/27 03:43:05;;;;;;;8.37;6.90;;;;;;;;;;5231175;28;20579;-76
2023/04/27 03:45:36;;;;;;;11.23;6.33;;;;;;;;;;5230899;28;20044;-77
2023/04/27 03:48:07;;;;;;;9.00;6.60;;;;;;;;;;5231545;28;20017;-75
2023/04/27 03:50:38;;;;;;;9.83;6.80;;;;;;;;;;5230806;28;20104;-75
2023/04/27 03:53:10;;;;;;;10.03;6.33;;;;;;;;;;5231670;28;20453;-75
2023/04/27 03:55:42;;;;;;;7.87;5.67;;;;;;;;;;5230325;28;20467;-75
2023/04/27 03:58:13;;;;;;;12.67;6.27;;;;;;;;;;5230728;28;20022;-76
2023/04/27 04:00:44;;;;;;;10.57;7.23;;;;;;;;;;5224591;28;20024;-76
2023/04/27 04:03:16;;;;;;;10.50;6.80;;;;;;;;;;5210307;28;20342;-75
2023/04/27 04:05:47;;;;;;;12.57;6.37;;;;;;;;;;5217419;28;20075;-76
2023/04/27 04:08:18;;;;;;;10.97;6.17;;;;;;;;;;5209832;28;20021;-76
2023/04/27 04:10:49;;;;;;;11.30;6.50;;;;;;;;;;5209331;28;20022;-76
2023/04/27 04:13:20;;;;;;;10.37;6.90;;;;;;;;;;5210205;28;20105;-74
2023/04/27 04:16:05;;;;;;;13.07;7.10;;;;;;;;;;5218124;28;20403;-76
2023/04/27 04:18:36;;;;;;;10.95;6.85;;;;;;;;;;5230118;28;20074;-77
2023/04/27 04:21:08;;;;;;;9.40;6.70;;;;;;;;;;5230988;28;20033;-77
2023/04/27 04:23:42;;;;;;;15.57;7.10;;;;;;;;;;5230763;28;20078;-77
2023/04/27 04:26:14;;;;;;;14.68;7.22;;;;;;;;;;5229729;28;20353;-75
2023/04/27 04:28:45;;;;;;;13.20;6.77;;;;;;;;;;5230559;28;20033;-75
2023/04/27 04:31:16;;;;;;;11.07;6.27;;;;;;;;;;5228831;28;20713;-76
2023/04/27 04:33:48;;;;;;;9.97;6.70;;;;;;;;;;5231097;28;20017;-76
2023/04/27 04:36:19;;;;;;;9.43;6.10;;;;;;;;;;5229994;28;20104;-76
2023/04/27 04:38:51;;;;;;;13.93;7.20;;;;;;;;;;5230605;28;20029;-75
2023/04/27 04:41:22;;;;;;;12.13;8.37;;;;;;;;;;5229201;28;20442;-75
2023/04/27 04:43:54;;;;;;;13.13;6.73;;;;;;;;;;5230732;28;20063;-75
2023/04/27 04:46:25;;;;;;;14.43;6.63;;;;;;;;;;5228617;28;20162;-75
2023/04/27 04:48:56;;;;;;;12.20;7.80;;;;;;;;;;5229432;28;20021;-76
2023/04/27 04:51:27;;;;;;;9.60;7.63;;;;;;;;;;5230029;28;20187;-76
2023/04/27 04:53:59;;;;;;;12.90;6.93;;;;;;;;;;5229297;28;20108;-76
2023/04/27 04:56:30;;;;;;;13.23;7.17;;;;;;;;;;5230102;28;20033;-76
2023/04/27 04:59:01;;;;;;;10.17;6.97;;;;;;;;;;5230039;28;20026;-76
2023/04/27 05:01:32;;;;;;;9.87;6.53;;;;;;;;;;5228853;28;20036;-75
2023/04/27 05:04:04;;;;;;;10.70;6.53;;;;;;;;;;5230250;28;20020;-75
2023/04/27 05:06:35;;;;;;;10.47;7.50;;;;;;;;;;5229504;28;20017;-75
2023/04/27 05:09:06;;;;;;;10.33;6.80;;;;;;;;;;5228834;28;20017;-76
2023/04/27 05:11:38;;;;;;;11.20;6.83;;;;;;;;;;5230104;28;20032;-76
2023/04/27 05:14:09;;;;;;;11.57;6.93;;;;;;;;;;5230179;28;20013;-76
2023/04/27 05:16:40;;;;;;;9.73;7.10;;;;;;;;;;5229152;28;20040;-76
2023/04/27 05:19:12;;;;;;;11.03;7.33;;;;;;;;;;5229760;28;20376;-77
2023/04/27 05:21:44;;;;;;;12.10;6.87;;;;;;;;;;5228880;28;20061;-76
2023/04/27 05:24:15;;;;;;;10.40;6.70;;;;;;;;;;5228640;28;20172;-76
2023/04/27 05:26:46;;;;;;;12.83;7.93;;;;;;;;;;5229804;28;20553;-75
2023/04/27 05:29:17;;;;;;;14.30;7.90;;;;;;;;;;5229922;28;20030;-74
2023/04/27 05:31:49;;;;;;;10.97;7.07;;;;;;;;;;5229228;28;20613;-75
2023/04/27 05:34:20;;;;;;;10.97;7.83;;;;;;;;;;5229497;28;20357;-75
2023/04/27 05:36:51;;;;;;;13.50;7.40;;;;;;;;;;5229693;28;20029;-75
2023/04/27 05:39:22;;;;;;;11.93;7.83;;;;;;;;;;5228181;28;20081;-75
2023/04/27 05:41:53;;;;;;;15.50;7.20;;;;;;;;;;5229932;28;20017;-77
2023/04/27 05:44:27;;;;;;;12.57;7.53;;;;;;;;;;5229332;28;20590;-76
2023/04/27 05:46:58;;;;;;;17.23;8.37;;;;;;;;;;5229963;28;20591;-76
2023/04/27 05:49:30;;;;;;;11.57;7.40;;;;;;;;;;5229239;28;20135;-74
2023/04/27 05:52:01;;;;;;;12.50;7.80;;;;;;;;;;5229634;28;20104;-75
2023/04/27 05:54:32;;;;;;;13.73;7.83;;;;;;;;;;5228014;28;20030;-75
2023/04/27 05:57:04;;;;;;;11.37;7.43;;;;;;;;;;5229459;28;20132;-75
2023/04/27 05:59:35;;;;;;;17.53;6.93;;;;;;;;;;5229246;28;20548;-75
2023/04/27 06:02:06;;;;;;;14.17;8.40;;;;;;;;;;5228864;28;20025;-76
2023/04/27 06:04:37;;;;;;;9.37;6.33;;;;;;;;;;5228141;28;20104;-76
2023/04/27 06:07:10;;;;;;;19.50;7.53;;;;;;;;;;5228958;28;20029;-76
2023/04/27 06:09:41;;;;;;;16.00;5.97;;;;;;;;;;5226553;28;20029;-76
2023/04/27 06:12:12;;;;;;;10.70;6.53;;;;;;;;;;5228772;28;20783;-77
2023/04/27 06:14:43;;;;;;;10.17;6.70;;;;;;;;;;5229345;28;20025;-76
2023/04/27 06:17:14;;;;;;;14.90;6.77;;;;;;;;;;5229018;28;20017;-76
2023/04/27 06:19:46;;;;;;;9.63;6.27;;;;;;;;;;5229117;28;20492;-75
2023/04/27 06:22:17;;;;;;;8.27;6.40;;;;;;;;;;5227412;28;20429;-75
2023/04/27 06:24:48;;;;;;;10.80;6.33;;;;;;;;;;5228267;28;20022;-74
2023/04/27 06:27:19;;;;;;;14.27;7.17;;;;;;;;;;5228922;28;20056;-75
2023/04/27 06:29:50;;;;;;;12.33;6.50;;;;;;;;;;5225055;28;20036;-75
2023/04/27 06:32:22;;;;;;;12.03;6.07;;;;;;;;;;5220964;28;20725;-75
2023/04/27 06:34:53;;;;;;;11.20;5.77;;;;;;;;;;5313642;27;20053;-75
2023/04/27 06:37:25;;;;;;;8.07;5.43;;;;;;;;;;5211466;28;20026;-76
2023/04/27 06:39:56;;;;;;;12.00;7.30;;;;;;;;;;5210679;28;20076;-76
2023/04/27 06:42:27;;;;;;;7.97;5.97;;;;;;;;;;5210085;28;20063;-75
2023/04/27 06:44:58;;;;;;;12.80;6.97;;;;;;;;;;5313753;27;20030;-76
2023/04/27 06:47:29;;;;;;;10.80;6.30;;;;;;;;;;5211004;28;20029;-76
2023/04/27 06:50:01;;;;;;;14.60;7.13;;;;;;;;;;5211451;28;20022;-75
2023/04/27 06:52:32;;;;;;;10.97;6.93;;;;;;;;;;5211468;28;20021;-75
2023/04/27 06:55:04;;;;;;;14.43;7.10;;;;;;;;;;5211182;28;20067;-75
2023/04/27 06:57:35;;;;;;;12.50;8.57;;;;;;;;;;5211215;28;20519;-75
2023/04/27 07:00:07;;;;;;;10.33;6.47;;;;;;;;;;5211896;28;20075;-75
2023/04/27 07:02:38;;;;;;;11.70;6.70;;;;;;;;;;5211370;28;20074;-76
2023/04/27 07:05:10;;;;;;;15.57;7.97;;;;;;;;;;5211598;28;20014;-76
2023/04/27 07:07:41;;;;;;;8.67;6.83;;;;;;;;;;5211583;28;20028;-76
2023/04/27 07:10:12;;;;;;;8.93;6.10;;;;;;;;;;5209910;28;20473;-76
2023/04/27 07:12:43;;;;;;;13.93;7.53;;;;;;;;;;5211930;28;20481;-75
2023/04/27 07:15:15;;;;;;;14.07;7.63;;;;;;;;;;5211591;28;20025;-75
2023/04/27 07:17:46;;;;;;;16.17;7.00;;;;;;;;;;5313220;27;20040;-75
2023/04/27 07:20:17;;;;;;;12.27;7.37;;;;;;;;;;5210787;28;20668;-76
2023/04/27 07:22:48;;;;;;;14.10;7.23;;;;;;;;;;5211729;28;20052;-76
2023/04/27 07:25:20;;;;;;;13.57;7.53;;;;;;;;;;5228609;28;20025;-76
2023/04/27 07:27:51;;;;;;;10.50;7.73;;;;;;;;;;5232022;28;20027;-75
2023/04/27 07:30:23;;;;;;;13.23;7.03;;;;;;;;;;5231834;28;20548;-76
2023/04/27 07:32:55;;;;;;;14.30;7.10;;;;;;;;;;5231587;28;20378;-76
2023/04/27 07:35:26;;;;;;;14.30;6.80;;;;;;;;;;5334102;27;20902;-75
2023/04/27 07:38:01;;;;;;;13.70;7.40;;;;;;;;;;5229984;28;20109;-76
2023/04/27 07:40:33;;;;;;;10.07;8.00;;;;;;;;;;5227922;28;20116;-76
2023/04/27 07:43:04;;;;;;;12.43;7.03;;;;;;;;;;5210777;28;20089;-76
2023/04/27 07:45:37;;;;;;;12.90;7.23;;;;;;;;;;5225244;28;20018;-76
2023/04/27 07:48:09;;;;;;;11.10;6.83;;;;;;;;;;5229975;28;20025;-75
2023/04/27 07:50:40;;;;;;;8.67;6.10;;;;;;;;;;5231275;28;20570;-74
2023/04/27 07:53:11;;;;;;;16.17;7.33;;;;;;;;;;5230921;28;20116;-74
2023/04/27 07:55:43;;;;;;;11.43;6.80;;;;;;;;;;5230847;28;20029;-73
2023/04/27 07:58:14;;;;;;;12.67;6.13;;;;;;;;;;5231138;28;20381;-73
2023/04/27 08:00:46;;;;;;;14.80;6.97;;;;;;;;;;5231023;28;20049;-74
2023/04/27 08:03:17;;;;;;;10.40;6.33;;;;;;;;;;5230852;28;20040;-75
2023/04/27 08:05:48;;;;;;;9.37;5.13;;;;;;;;;;5226209;28;20036;-74
2023/04/27 08:08:19;;;;;;;10.07;5.50;;;;;;;;;;5231007;28;20026;-73
2023/04/27 08:10:50;;;;;;;7.77;5.40;;;;;;;;;;5228602;28;20019;-73
2023/04/27 08:13:22;;;;;;;11.23;5.60;;;;;;;;;;5231143;28;20158;-74
2023/04/27 08:15:57;;;;;;;10.17;5.40;;;;;;;;;;5230983;28;20692;-74
2023/04/27 08:18:28;;;;;;;8.60;5.03;;;;;;;;;;5229314;28;20026;-75
2023/04/27 08:20:59;;;;;;;10.80;4.50;;;;;;;;;;5231475;28;20021;-75
2023/04/27 08:23:31;;;;;;;8.00;4.00;;;;;;;;;;5229684;28;20022;-75
2023/04/27 08:26:03;;;;;;;8.80;4.97;;;;;;;;;;5231660;28;20041;-75
2023/04/27 08:28:34;;;;;;;10.80;4.83;;;;;;;;;;5230642;28;20075;-76
2023/04/27 08:31:06;;;;;;;7.97;4.37;;;;;;;;;;5216438;28;20065;-75
2023/04/27 08:33:37;;;;;;;11.97;5.27;;;;;;;;;;5210389;28;20056;-76
2023/04/27 08:36:08;;;;;;;6.83;4.23;;;;;;;;;;5221676;28;20465;-76
2023/04/27 08:38:39;;;;;;;8.33;4.17;;;;;;;;;;5230014;28;20156;-76
2023/04/27 08:41:16;;;;;;;6.87;3.80;;;;;;;;;;5230603;28;20025;-76
2023/04/27 08:43:52;;;;;;;9.07;4.53;;;;;;;;;;5231084;28;20022;-76
2023/04/27 08:46:25;;;;;;;5.77;3.67;;;;;;;;;;5214859;28;20026;-76
2023/04/27 08:48:57;;;;;;;9.40;3.90;;;;;;;;;;5313017;27;20117;-76
2023/04/27 08:51:28;;;;;;;8.57;3.70;;;;;;;;;;5228212;28;20100;-75
2023/04/27 08:54:00;;;;;;;5.83;3.27;;;;;;;;;;5218524;28;20025;-75
2023/04/27 08:56:31;;;;;;;8.43;2.97;;;;;;;;;;5209853;28;20022;-75
2023/04/27 08:59:03;;;;;;;5.07;3.07;;;;;;;;;;5218250;28;20037;-74
2023/04/27 09:01:34;;;;;;;4.07;2.70;;;;;;;;;;5229970;28;20545;-74
2023/04/27 09:04:06;;;;;;;10.70;4.47;;;;;;;;;;5230210;28;20022;-76
2023/04/27 09:06:37;;;;;;;4.73;2.67;;;;;;;;;;5226190;28;20025;-75
2023/04/27 09:09:10;;;;;;;6.67;2.97;;;;;;;;;;5214225;28;20083;-75
2023/04/27 09:11:41;;;;;;;5.17;3.03;;;;;;;;;;5212964;28;20029;-75
2023/04/27 09:14:16;;;;;;;5.63;3.50;;;;;;;;;;5228549;28;20022;-75
2023/04/27 09:16:56;;;;;;;5.70;3.20;;;;;;;;;;5230342;28;20036;-75
2023/04/27 09:19:28;;;;;;;6.13;2.93;;;;;;;;;;5228505;28;20009;-74
2023/04/27 09:22:03;;;;;;;8.20;3.77;;;;;;;;;;5224200;28;20034;-75
2023/04/27 09:24:35;;;;;;;4.97;3.10;;;;;;;;;;5213614;28;20366;-74
2023/04/27 09:27:07;;;;;;;7.77;2.73;;;;;;;;;;5211868;28;20030;-76
2023/04/27 09:29:39;;;;;;;8.40;4.63;;;;;;;;;;5216169;28;20500;-76
2023/04/27 09:32:16;;;;;;;7.10;3.17;;;;;;;;;;5216503;27;20739;-75
2023/04/27 09:34:48;;;;;;;4.60;2.97;;;;;;;;;;5221777;28;20094;-75
2023/04/27 09:37:19;;;;;;;4.90;3.10;;;;;;;;;;5228667;28;20025;-76
2023/04/27 09:39:50;;;;;;;6.47;2.93;;;;;;;;;;5213950;28;20433;-75
2023/04/27 09:42:21;;;;;;;6.60;3.30;;;;;;;;;;5208976;28;20022;-75
2023/04/27 09:44:53;;;;;;;6.23;2.80;;;;;;;;;;5209166;28;20057;-75
2023/04/27 09:47:27;;;;;;;7.97;3.03;;;;;;;;;;5207898;28;20029;-75
2023/04/27 09:49:58;;;;;;;;;;;;;;;;;;5213005;28;20066;-74
2023/04/27 09:52:30;;;;;;;6.90;3.20;;;;;;;;;;5222677;28;19952;-73
2023/04/27 09:55:02;;;;;;;8.88;3.45;;;;;;;;;;5223466;28;20138;-74
2023/04/27 09:57:42;;;;;;;5.85;3.25;;;;;;;;;;5228237;28;20028;-74
2023/04/27 10:00:15;;;;;;;6.03;3.30;;;;;;;;;;5212653;28;20034;-74
2023/04/27 10:03:06;;;;;;;5.68;3.22;;;;;;;;;;5227219;28;20036;-74
2023/04/27 10:05:41;;;;;;;6.10;3.33;;;;;;;;;;5227034;28;20036;-74
2023/04/27 10:08:12;;;;;;;14.55;3.50;;;;;;;;;;5229776;28;20098;-74
2023/04/27 10:10:47;;;;;;;7.20;3.83;;;;;;;;;;5231437;28;20524;-74
2023/04/27 10:13:20;;;;;;;6.85;3.35;;;;;;;;;;5231505;28;20025;-75
2023/04/27 10:15:51;;;;;;;6.75;3.47;;;;;;;;;;5230727;28;20025;-75
2023/04/27 10:18:29;;;;;;;5.40;3.20;;;;;;;;;;5230246;28;20098;-76
2023/04/27 10:21:10;;;;;;;5.15;3.25;;;;;;;;;;5232384;28;20029;-74
2023/04/27 10:23:44;;;;;;;7.05;4.05;;;;;;;;;;5229692;28;20022;-74
2023/04/27 10:26:25;;;;;;;5.93;3.70;;;;;;;;;;5231471;28;20030;-74
2023/04/27 10:29:07;;;;;;;4.75;3.50;;;;;;;;;;5232771;28;20049;-74
2023/04/27 10:31:46;;;;;;;7.10;3.83;;;;;;;;;;5232658;28;20116;-75
2023/04/27 10:34:18;;;;;;;6.65;3.50;;;;;;;;;;5232172;28;20021;-75
2023/04/27 10:36:49;;;;;;;5.85;3.03;;;;;;;;;;5233001;28;20480;-74
2023/04/27 10:39:25;;;;;;;7.90;3.72;;;;;;;;;;5230480;28;20025;-75
2023/04/27 10:41:56;;;;;;;8.90;3.28;;;;;;;;;;5232365;28;20589;-75
2023/04/27 10:44:28;;;;;;;7.60;3.50;;;;;;;;;;5232644;28;20049;-75
2023/04/27 10:47:20;;;;;;;5.82;2.97;;;;;;;;;;5230145;28;20041;-75
2023/04/27 10:49:53;;;;;;;7.25;3.80;;;;;;;;;;5221831;28;20496;-75
2023/04/27 10:52:25;;;;;;;7.30;4.25;;;;;;;;;;5231981;28;20029;-75
2023/04/27 10:54:56;;;;;;;6.07;3.50;;;;;;;;;;5230491;28;20032;-75
2023/04/27 10:57:28;;;;;;;5.22;3.70;;;;;;;;;;5231764;28;20389;-75
2023/04/27 10:59:59;;;;;;;6.95;3.75;;;;;;;;;;5232857;28;20096;-74
2023/04/27 11:02:30;;;;;;;5.88;3.78;;;;;;;;;;5232205;28;20025;-75
2023/04/27 11:05:04;;;;;;;7.33;3.43;;;;;;;;;;5232239;28;20373;-75
2023/04/27 11:07:36;;;;;;;4.93;3.20;;;;;;;;;;5232267;28;20555;-75
2023/04/27 11:10:07;;;;;;;8.63;5.00;;;;;;;;;;5231354;28;20025;-75
2023/04/27 11:12:38;;;;;;;4.63;3.63;;;;;;;;;;5231621;28;20022;-75
2023/04/27 11:15:10;;;;;;;6.20;3.80;;;;;;;;;;5232274;28;20025;-75
2023/04/27 11:17:41;;;;;;;8.60;4.33;;;;;;;;;;5232119;28;20487;-75
2023/04/27 11:20:15;;;;;;;6.83;3.87;;;;;;;;;;5230574;28;20022;-75
2023/04/27 11:22:46;;;;;;;8.63;4.18;;;;;;;;;;5232095;28;20142;-75
2023/04/27 11:25:26;;;;;;;7.33;4.27;;;;;;;;;;5230583;28;20073;-75
2023/04/27 11:27:57;;;;;;;7.27;4.60;;;;;;;;;;5231861;28;20037;-75
2023/04/27 11:30:28;;;;;;;6.30;4.13;;;;;;;;;;5231618;28;20032;-75
2023/04/27 11:33:06;;;;;;;6.63;3.93;;;;;;;;;;5231779;28;20161;-75
2023/04/27 11:35:38;;;;;;;6.43;4.57;;;;;;;;;;5231782;28;20383;-75
2023/04/27 11:38:17;;;;;;;7.53;4.73;;;;;;;;;;5229724;28;20244;-75
2023/04/27 11:41:04;;;;;;;6.97;4.40;;;;;;;;;;5231852;28;20100;-75
2023/04/27 11:43:39;;;;;;;8.70;4.00;;;;;;;;;;5231180;28;20028;-74
2023/04/27 11:46:11;;;;;;;8.80;4.27;;;;;;;;;;5231072;28;20126;-74
2023/04/27 11:48:42;;;;;;;6.23;4.67;;;;;;;;;;5231610;28;20702;-75
2023/04/27 11:51:13;;;;;;;6.63;4.43;;;;;;;;;;5229356;28;20117;-73
2023/04/27 11:53:47;;;;;;;6.50;3.90;;;;;;;;;;5229217;28;20376;-73
2023/04/27 11:56:18;;;;;;;7.20;4.00;;;;;;;;;;5230190;28;20476;-73
2023/04/27 11:58:49;;;;;;;5.80;3.60;;;;;;;;;;5230231;28;20028;-74
2023/04/27 12:01:20;;;;;;;6.87;3.40;;;;;;;;;;5231112;28;20013;-74
2023/04/27 12:03:52;;;;;;;6.90;4.13;;;;;;;;;;5231329;28;20021;-75
2023/04/27 12:06:24;;;;;;;6.40;3.60;;;;;;;;;;5230736;28;20025;-74
2023/04/27 12:08:55;;;;;;;6.03;3.90;;;;;;;;;;5229732;28;20109;-74
2023/04/27 12:11:27;;;;;;;5.37;3.77;;;;;;;;;;5231119;28;20100;-74
2023/04/27 12:13:58;;;;;;;5.73;3.30;;;;;;;;;;5230803;28;20366;-74
2023/04/27 12:16:30;;;;;;;7.73;3.60;;;;;;;;;;5229275;28;20031;-74
2023/04/27 12:19:01;;;;;;;8.30;4.20;;;;;;;;;;5231035;28;20025;-73
2023/04/27 12:21:32;;;;;;;9.63;4.40;;;;;;;;;;5230417;28;20006;-73
2023/04/27 12:24:04;;;;;;;7.10;4.00;;;;;;;;;;5228718;27;20013;-73
2023/04/27 12:26:35;;;;;;;4.63;3.67;;;;;;;;;;5229854;28;20028;-74
2023/04/27 12:29:06;;;;;;;6.40;3.77;;;;;;;;;;5230691;28;20090;-74
2023/04/27 12:31:38;;;;;;;6.97;3.60;;;;;;;;;;5230271;28;20046;-74
2023/04/27 12:34:09;;;;;;;5.00;3.80;;;;;;;;;;5229245;28;20049;-73
2023/04/27 12:36:40;;;;;;;7.33;3.60;;;;;;;;;;5230348;28;20024;-74
2023/04/27 12:39:15;;;;;;;7.77;3.87;;;;;;;;;;5229316;28;20048;-74
2023/04/27 12:41:47;;;;;;;5.90;4.00;;;;;;;;;;5230850;28;20022;-73
2023/04/27 12:44:20;;;;;;;5.27;4.13;;;;;;;;;;5230311;28;20041;-75
2023/04/27 12:46:51;;;;;;;5.97;4.20;;;;;;;;;;5230195;28;21283;-75
2023/04/27 12:49:22;;;;;;;7.53;4.60;;;;;;;;;;5214391;28;20146;-74
2023/04/27 12:51:55;;;;;;;7.43;4.90;;;;;;;;;;5209469;28;20040;-74
2023/04/27 12:54:26;;;;;;;7.50;4.60;;;;;;;;;;5208909;28;20366;-74
2023/04/27 12:57:01;;;;;;;7.57;4.10;;;;;;;;;;5208713;28;20033;-75
2023/04/27 12:59:32;;;;;;;5.47;4.27;;;;;;;;;;5229805;28;20384;-74
2023/04/27 13:02:04;;;;;;;4.50;3.80;;;;;;;;;;5225129;28;20018;-74
2023/04/27 13:04:36;;;;;;;5.83;4.07;;;;;;;;;;5213733;28;20055;-73
2023/04/27 13:07:07;;;;;;;6.70;3.73;;;;;;;;;;5207880;28;20056;-73
2023/04/27 13:09:38;;;;;;;7.50;4.93;;;;;;;;;;5216206;28;20027;-73
2023/04/27 13:12:09;;;;;;;7.67;3.83;;;;;;;;;;5229972;28;20025;-73
2023/04/27 13:14:42;;;;;;;7.23;4.83;;;;;;;;;;5229516;28;20025;-73
2023/04/27 13:17:13;;;;;;;7.23;4.50;;;;;;;;;;5229162;28;20017;-74
2023/04/27 13:19:44;;;;;;;8.03;4.30;;;;;;;;;;5226421;28;20020;-73
2023/04/27 13:22:15;;;;;;;6.03;3.63;;;;;;;;;;5227980;28;20032;-73
2023/04/27 13:24:47;;;;;;;7.87;4.20;;;;;;;;;;5229277;28;20029;-74
2023/04/27 13:27:20;;;;;;;7.57;4.00;;;;;;;;;;5217112;28;20024;-73
2023/04/27 13:29:51;;;;;;;6.73;3.80;;;;;;;;;;5229684;28;20477;-73
2023/04/27 13:32:22;;;;;;;10.57;4.03;;;;;;;;;;5228406;27;20094;-73
2023/04/27 13:34:53;;;;;;;8.93;4.20;;;;;;;;;;5230039;28;20029;-73
2023/04/27 13:37:24;;;;;;;5.37;4.13;;;;;;;;;;5229130;28;20018;-74
2023/04/27 13:39:55;;;;;;;6.30;4.90;;;;;;;;;;5229274;28;20553;-72
2023/04/27 13:42:28;;;;;;;6.53;3.83;;;;;;;;;;5228294;28;20474;-73
2023/04/27 13:44:59;;;;;;;7.63;4.33;;;;;;;;;;5229939;28;20037;-74
2023/04/27 13:47:36;;;;;;;6.50;3.70;;;;;;;;;;5229150;28;20064;-73
2023/04/27 13:50:08;;;;;;;7.93;3.73;;;;;;;;;;5219135;28;20091;-74
2023/04/27 13:52:39;;;;;;;9.33;4.83;;;;;;;;;;5207192;28;20054;-73
2023/04/27 13:55:10;;;;;;;8.23;4.23;;;;;;;;;;5228422;28;20731;-75
2023/04/27 13:57:42;;;;;;;7.20;4.50;;;;;;;;;;5229378;28;20024;-75
2023/04/27 14:00:13;;;;;;;6.20;4.63;;;;;;;;;;5228595;28;20021;-75
2023/04/27 14:02:44;;;;;;;7.50;4.40;;;;;;;;;;5229534;28;20053;-75
2023/04/27 14:05:16;;;;;;;8.07;4.40;;;;;;;;;;5228947;28;20033;-75
2023/04/27 14:07:47;;;;;;;5.80;4.27;;;;;;;;;;5228531;28;20045;-74
2023/04/27 14:10:18;;;;;;;4.93;3.67;;;;;;;;;;5223052;28;20150;-74
2023/04/27 14:12:50;;;;;;;5.30;3.77;;;;;;;;;;5228145;28;20036;-74
2023/04/27 14:15:21;;;;;;;5.03;3.73;;;;;;;;;;5229481;28;20464;-75
2023/04/27 14:17:52;;;;;;;6.73;3.40;;;;;;;;;;5225425;28;20135;-74
2023/04/27 14:20:23;;;;;;;7.93;4.53;;;;;;;;;;5234782;28;20445;-74
2023/04/27 14:22:55;;;;;;;6.87;3.83;;;;;;;;;;5220006;28;20819;-74
2023/04/27 14:25:28;;;;;;;9.40;4.90;;;;;;;;;;5233611;28;20025;-74
2023/04/27 14:28:03;;;;;;;6.45;4.10;;;;;;;;;;5228359;28;20762;-74
2023/04/27 14:30:34;;;;;;;7.07;4.60;;;;;;;;;;5223129;28;20128;-74
2023/04/27 14:33:05;;;;;;;6.80;4.00;;;;;;;;;;5326650;27;20450;-75
2023/04/27 14:35:37;;;;;;;6.60;4.13;;;;;;;;;;5227017;28;20376;-75
2023/04/27 14:38:08;;;;;;;8.77;4.60;;;;;;;;;;5217531;28;20133;-74
2023/04/27 14:40:40;;;;;;;6.73;4.03;;;;;;;;;;5233198;28;20030;-74
2023/04/27 14:43:11;;;;;;;9.77;4.50;;;;;;;;;;5232238;28;20620;-72
2023/04/27 14:45:42;;;;;;;7.23;3.67;;;;;;;;;;5229988;28;20503;-73
2023/04/27 14:48:13;;;;;;;6.60;3.90;;;;;;;;;;5229429;28;20043;-73
2023/04/27 14:50:45;;;;;;;6.37;4.53;;;;;;;;;;5230378;28;20026;-73
2023/04/27 14:53:16;;;;;;;7.87;5.20;;;;;;;;;;5231014;28;21369;-73
2023/04/27 14:55:47;;;;;;;5.90;4.30;;;;;;;;;;5237284;28;20132;-73
2023/04/27 14:58:18;;;;;;;6.77;4.50;;;;;;;;;;5237663;28;20038;-74
2023/04/27 15:00:50;;;;;;;5.60;3.90;;;;;;;;;;5239569;28;20026;-73
2023/04/27 15:03:21;;;;;;;9.90;4.10;;;;;;;;;;5231725;28;20021;-74
2023/04/27 15:05:52;;;;;;;6.40;4.33;;;;;;;;;;5235104;28;20040;-74